• Join FlightAware (Why Join?)
  • Login
  • US Flag 
07:24AM EST


 

Airport Tracker/Info


-or-


 

Live Flight TrackerFlight Track Log ✈ LOF3416 ✈ 15-Nov-2013 ✈ KORD - KSGF

Flight Track Log - Related Links

Times and Time Zones

All times are in EST time to prevent confusion due to time zone crossing. See the LOF3416 flight status page for this flight to view local times or setup timezone preferences in your user account.

Time Position Orientation Groundspeed Altitude Reporting Facility
EST Latitude Longitude Course Direction KTS MPH feet Rate Location/Type
06:09PM 41.7040 -88.0680 312° West 100 115 10,900  Level FlightAware
06:10PM 41.6550 -88.0870 196° South 312 359 11,800 1,020 Climbing FlightAware
06:11PM 41.5810 -88.1160 196° South 316 364 12,500 1,260 Climbing FlightAware
06:12PM 41.4910 -88.1480 195° South 332 382 14,300 1,260 Climbing FlightAware
06:12PM 41.4600 -88.1640 201° Southwest 332 382 14,300  Level FlightAware
06:13PM 41.4310 -88.1790 201° Southwest 332 382 14,300  Level FlightAware
06:14PM 41.3600 -88.2150 201° Southwest 332 382 14,300 2,400 Level FlightAware
06:14PM 41.2620 -88.2440 193° South 370 426 18,000 3,240 Climbing FlightAware
06:15PM 41.1580 -88.2920 199° South 408 470 19,600 1,440 Climbing FlightAware
06:16PM 41.0640 -88.3360 199° South 299 344 21,100 1,440 Climbing FlightAware
06:17PM 40.9980 -88.3630 197° South 377 434 21,900 1,260 Climbing FlightAware
06:18PM 40.9290 -88.3970 200° South 387 445 22,800 1,500 Climbing FlightAware
06:18PM 40.8780 -88.4180 197° South 373 429 23,800 1,620 Climbing FlightAware
06:19PM 40.7950 -88.4560 199° South 356 410 25,100 840 Climbing FlightAware
06:20PM 40.7160 -88.4910 199° South 381 438 25,200 240 Climbing FlightAware
06:20PM 40.6730 -88.5080 197° South 384 442 25,400 180 Climbing FlightAware
06:21PM 40.6340 -88.5270 200° South 395 455 25,400  Level FlightAware
06:22PM 40.5550 -88.5630 199° South 375 432 25,400  Level FlightAware
06:22PM 40.4970 -88.5800 193° South 400 460 25,400  Level FlightAware
06:23PM 40.4250 -88.5960 190° South 400 460 25,400  Level FlightAware
06:24PM 40.3500 -88.6140 190° South 400 460 25,400  Level FlightAware
06:24PM 40.2940 -88.6270 190° South 400 460 25,400  Level FlightAware
06:25PM 40.2020 -88.6480 190° South 400 460 25,400 1,500 Level FlightAware
06:26PM 40.1147 -88.9258 190° South 414 476 28,000 1,440 Climbing Kansas City Center
06:27PM 40.0161 -89.0508 224° Southwest 411 473 28,000  Level Kansas City Center
06:28PM 39.9339 -89.1556 224° Southwest 411 473 28,000  Level Kansas City Center
06:29PM 39.8597 -89.2661 229° Southwest 406 467 28,000  Level Kansas City Center
06:30PM 39.7908 -89.3839 233° Southwest 406 467 28,000  Level Kansas City Center
06:31PM 39.7219 -89.4989 232° Southwest 404 465 28,000  Level Kansas City Center
06:32PM 39.6433 -89.6306 232° Southwest 405 466 28,000  Level Kansas City Center
06:33PM 39.5736 -89.7442 231° Southwest 405 466 28,000  Level Kansas City Center
06:35PM 39.4364 -89.9725 232° Southwest 403 464 28,000  Level Kansas City Center
06:36PM 39.3669 -90.0858 232° Southwest 403 464 28,000  Level Kansas City Center
06:37PM 39.2858 -90.2194 232° Southwest 399 459 28,000  Level Kansas City Center
06:38PM 39.2169 -90.3314 232° Southwest 399 459 28,000  Level Kansas City Center
06:39PM 39.1492 -90.4425 232° Southwest 398 458 28,000  Level Kansas City Center
06:41PM 39.0806 -90.5522 231° Southwest 397 457 28,000  Level Kansas City Center
06:42PM 39.0128 -90.6633 232° Southwest 398 458 28,000  Level Kansas City Center
06:43PM 38.9428 -90.7728 231° Southwest 399 459 28,000  Level Kansas City Center
06:44PM 38.8611 -90.9053 232° Southwest 399 459 28,000  Level Kansas City Center
06:45PM 38.7928 -91.0158 232° Southwest 399 459 28,000  Level Kansas City Center
06:46PM 38.7228 -91.1264 231° Southwest 402 463 28,000  Level Kansas City Center
06:47PM 38.6539 -91.2364 231° Southwest 400 460 28,000  Level Kansas City Center
06:48PM 38.5836 -91.3467 231° Southwest 401 461 28,000  Level Kansas City Center
06:49PM 38.5103 -91.4642 231° Southwest 399 459 28,000  Level Kansas City Center
06:50PM 38.4389 -91.5736 230° Southwest 399 459 28,000 -600 Level Kansas City Center
06:51PM 38.3542 -91.7053 231° Southwest 399 459 26,800 -1,080 Descending Kansas City Center
06:52PM 38.2839 -91.8164 231° Southwest 401 461 25,800 -1,020 Descending Kansas City Center
06:53PM 38.2108 -91.9289 230° Southwest 409 471 24,800 -1,020 Descending Kansas City Center
06:54PM 38.1378 -92.0408 230° Southwest 410 472 23,700 -1,380 Descending Kansas City Center
06:55PM 38.0592 -92.1619 231° Southwest 408 470 22,000 -1,560 Descending Kansas City Center
06:56PM 37.9883 -92.2706 230° Southwest 403 464 20,500 -1,620 Descending Kansas City Center
06:57PM 37.9175 -92.3806 231° Southwest 403 464 18,700 -1,740 Descending Kansas City Center
06:58PM 37.8500 -92.4817 230° Southwest 388 447 17,000 -1,380 Descending Kansas City Center
06:59PM 37.7881 -92.5808 232° Southwest 372 428 15,900 -1,500 Descending Kansas City Center
07:00PM 37.7211 -92.6772 229° Southwest 360 414 14,000 -2,040 Descending Kansas City Center
07:01PM 37.6489 -92.7850 230° Southwest 343 395 11,700 -1,920 Descending Kansas City Center
07:02PM 37.5953 -92.8644 230° Southwest 317 365 10,100 -1,560 Descending Kansas City Center
07:04PM 37.5042 -92.9842 226° Southwest  Level FlightAware Approximate
07:04PM 37.5047 -93.0011 226° Southwest 262 302 6,900  Level Kansas City Center
07:05PM 37.4603 -93.0681 230° Southwest 254 292 5,500 -1,440 Descending Kansas City Center
07:06PM 37.4178 -93.1314 230° Southwest 245 282 4,000 -1,260 Descending Kansas City Center
07:07PM 37.3769 -93.1922 230° Southwest 236 272 3,000 -540 Descending Kansas City Center
07:08PM 37.3492 -93.2519 240° Southwest 216 249 2,900 -120 Descending Kansas City Center
07:09PM 37.3367 -93.3244 258° West 190 219 2,800 -240 Descending Kansas City Center
07:10PM 37.3156 -93.3497 224° Southwest 160 184 2,500 -300 Descending Kansas City Center
07:12PM 37.2457 -93.3886 219° Southwest  Level Estimated
07:19PM 37.2457 -93.3886 219° Southwest  Level Estimated
07:20PM 37.2457 -93.3886 219° Southwest  Level Estimated
07:21PM 37.2457 -93.3886 219° Southwest  Level Estimated